HDAM

Djibouti-Ambouli Airport

Djibouti City, Djibouti
METAR HDAM 181600Z 11008KT CAVOK 28/23 Q1014
Observed Flight Rules
Nov-18 @ 16:00 UTC (29 minutes ago) Visual Flight Rules
Wind Visibility Clouds
110° at 8 knots 10,000+ meters
  • Clear skies
Temperatures Readings
Current 28°C / 82°F
Dewpoint 23°C / 73°F
Humidity 74%
Altimeter 29.94" Hg
Pressure 1014 hPa
Elevation 49
METAR HDAM 181600Z 11008KT CAVOK 28/23 Q1014
Observed Flight Rules
Nov-18 @ 16:00 UTC
(29 minutes ago)
VFR
Wind Visibility
110° at 8 knots 10,000+ meters
Clouds
  • Clear skies
Temperature Dewpoint
28°C / 82°F 23°C / 73°F
Humidity Altimeter Pressure
74% 29.94" Hg 1014 hPa